createdAt,value
2019-04-29T00:02:23.761Z,20.32
2019-04-29T00:04:57.030Z,18.84
2019-04-29T00:07:31.400Z,17.73
2019-04-29T00:10:07.239Z,17.01
2019-04-29T00:12:42.846Z,16.46
2019-04-29T00:15:38.023Z,16.01
2019-04-29T00:18:16.687Z,18.52
2019-04-29T00:20:51.252Z,20.59
2019-04-29T00:23:24.412Z,19.41
2019-04-29T00:25:57.649Z,18.17
2019-04-29T00:28:30.997Z,17.31
2019-04-29T00:31:04.272Z,16.66
2019-04-29T00:33:37.552Z,16.17
2019-04-29T00:36:10.832Z,17.96
2019-04-29T00:39:05.941Z,20.69
2019-04-29T00:42:07.885Z,19.90
2019-04-29T00:44:41.133Z,18.31
2019-04-29T00:47:14.529Z,17.42
2019-04-29T00:49:47.822Z,16.76
2019-04-29T00:52:21.084Z,16.29
2019-04-29T00:55:00.450Z,18.27
2019-04-29T00:57:33.675Z,20.48
2019-04-29T01:00:08.335Z,19.24
2019-04-29T01:02:42.163Z,18.03
2019-04-29T01:05:15.482Z,17.24
2019-04-29T01:07:48.660Z,16.62
2019-04-29T01:10:21.922Z,16.11
2019-04-29T01:12:55.148Z,18.35
2019-04-29T01:15:29.934Z,20.73
2019-04-29T01:18:04.616Z,19.52
2019-04-29T01:20:37.851Z,18.28
2019-04-29T01:23:11.133Z,17.39
2019-04-29T01:25:45.939Z,16.77
2019-04-29T01:28:30.544Z,16.27
2019-04-29T01:31:16.729Z,18.80
2019-04-29T01:33:52.309Z,20.49
2019-04-29T01:36:42.296Z,19.20
2019-04-29T01:39:17.258Z,17.91
2019-04-29T01:42:11.611Z,17.17
2019-04-29T01:44:44.904Z,16.53
2019-04-29T01:47:18.149Z,16.07
2019-04-29T01:49:51.326Z,18.08
2019-04-29T01:52:24.590Z,21.00
2019-04-29T01:54:57.749Z,20.32
2019-04-29T01:57:30.883Z,18.87
2019-04-29T02:00:04.118Z,17.87
2019-04-29T02:02:37.456Z,17.14
2019-04-29T02:05:10.811Z,16.56
2019-04-29T02:07:43.975Z,16.14
2019-04-29T02:10:31.148Z,18.05
2019-04-29T02:13:04.426Z,20.96
2019-04-29T02:15:37.668Z,19.96
2019-04-29T02:18:11.906Z,18.60
2019-04-29T02:20:45.197Z,17.63
2019-04-29T02:23:23.810Z,16.97
2019-04-29T02:25:57.102Z,16.41
2019-04-29T02:28:30.406Z,18.21
2019-04-29T02:31:21.222Z,21.11
2019-04-29T02:33:57.617Z,20.05
2019-04-29T02:36:32.620Z,18.72
2019-04-29T02:39:30.565Z,17.77
2019-04-29T02:42:28.684Z,16.96
2019-04-29T02:45:06.237Z,16.38
2019-04-29T02:47:39.563Z,18.33
2019-04-29T02:50:14.089Z,20.59
2019-04-29T02:52:47.310Z,19.52
2019-04-29T02:55:42.555Z,18.25
2019-04-29T02:58:21.636Z,17.31
2019-04-29T03:01:13.655Z,16.63
2019-04-29T03:04:04.656Z,18.70
2019-04-29T03:06:38.018Z,19.30
2019-04-29T03:09:11.192Z,18.14
2019-04-29T03:11:44.519Z,17.27
2019-04-29T03:14:17.669Z,16.62
2019-04-29T03:16:51.071Z,16.70
2019-04-29T03:19:29.453Z,19.69
2019-04-29T03:22:04.644Z,19.67
2019-04-29T03:24:37.913Z,18.39
2019-04-29T03:27:12.487Z,17.42
2019-04-29T03:29:46.457Z,16.76
2019-04-29T03:32:19.748Z,16.20
2019-04-29T03:34:54.000Z,18.07
2019-04-29T03:37:27.281Z,19.94
2019-04-29T03:40:00.562Z,18.84
2019-04-29T03:42:33.743Z,17.70
2019-04-29T03:45:07.782Z,16.90
2019-04-29T03:47:42.077Z,16.32
2019-04-29T03:50:15.432Z,18.01
2019-04-29T03:52:48.598Z,20.48
2019-04-29T03:55:38.117Z,19.63
2019-04-29T03:57:56.876Z,18.32
2019-04-29T04:00:30.117Z,17.39
2019-04-29T04:03:28.390Z,16.76
2019-04-29T04:06:23.608Z,16.14
2019-04-29T04:09:15.604Z,18.42
2019-04-29T04:11:48.917Z,19.35
2019-04-29T04:14:22.166Z,18.17
2019-04-29T04:17:14.560Z,17.18
2019-04-29T04:19:48.465Z,16.41
2019-04-29T04:22:21.733Z,18.25
2019-04-29T04:24:54.903Z,21.06
2019-04-29T04:27:28.276Z,20.41
2019-04-29T04:30:01.547Z,18.98
2019-04-29T04:32:34.950Z,17.89
2019-04-29T04:35:08.340Z,17.13
2019-04-29T04:37:41.712Z,16.55
2019-04-29T04:40:18.324Z,16.06
2019-04-29T04:42:51.608Z,18.32
2019-04-29T04:45:24.851Z,21.03
2019-04-29T04:47:58.148Z,20.28
2019-04-29T04:50:33.675Z,18.83
2019-04-29T04:53:07.999Z,17.73
2019-04-29T04:55:42.872Z,17.01
2019-04-29T04:58:16.184Z,16.41
2019-04-29T05:00:51.513Z,18.14
2019-04-29T05:03:24.831Z,20.83
2019-04-29T05:06:00.266Z,19.88
2019-04-29T05:08:35.386Z,18.51
2019-04-29T05:11:08.785Z,17.55
2019-04-29T05:13:43.580Z,16.86
2019-04-29T05:16:17.219Z,16.35
2019-04-29T05:18:51.572Z,17.99
2019-04-29T05:21:24.793Z,20.97
2019-04-29T05:23:58.117Z,20.66
2019-04-29T05:26:31.567Z,19.22
2019-04-29T05:29:04.881Z,18.08
2019-04-29T05:31:38.203Z,17.31
2019-04-29T05:34:12.411Z,16.72
2019-04-29T05:36:53.925Z,16.21
2019-04-29T05:39:30.740Z,18.27
2019-04-29T05:42:07.662Z,21.21
2019-04-29T05:44:50.315Z,20.29
2019-04-29T05:47:42.335Z,18.83
2019-04-29T05:50:26.396Z,17.80
2019-04-29T05:53:11.387Z,17.17
2019-04-29T05:55:43.390Z,16.62
2019-04-29T05:58:16.683Z,16.17
2019-04-29T06:01:04.115Z,18.28
2019-04-29T06:03:38.430Z,21.14
2019-04-29T06:06:12.501Z,20.00
2019-04-29T06:08:46.192Z,18.67
2019-04-29T06:11:19.410Z,17.72
2019-04-29T06:13:52.747Z,17.00
2019-04-29T06:16:25.986Z,16.49
2019-04-29T06:19:00.322Z,16.89
2019-04-29T06:21:34.281Z,20.14
2019-04-29T06:24:07.759Z,20.14
2019-04-29T06:26:43.590Z,18.82
2019-04-29T06:29:16.594Z,17.74
2019-04-29T06:31:49.865Z,17.01
2019-04-29T06:34:23.218Z,16.49
2019-04-29T06:36:56.505Z,18.21
2019-04-29T06:39:29.940Z,20.64
2019-04-29T06:42:03.252Z,19.73
2019-04-29T06:44:36.754Z,18.39
2019-04-29T06:47:09.969Z,17.52
2019-04-29T06:49:43.266Z,16.83
2019-04-29T06:52:18.501Z,16.29
2019-04-29T06:54:51.704Z,18.04
2019-04-29T06:57:25.314Z,19.73
2019-04-29T06:59:58.542Z,18.63
2019-04-29T07:02:31.839Z,17.61
2019-04-29T07:05:05.376Z,16.87
2019-04-29T07:07:38.747Z,16.34
2019-04-29T07:10:12.204Z,18.18
2019-04-29T07:12:47.370Z,21.21
2019-04-29T07:15:20.336Z,20.89
2019-04-29T07:17:53.621Z,19.44
2019-04-29T07:20:27.016Z,18.31
2019-04-29T07:23:00.763Z,17.57
2019-04-29T07:25:35.086Z,16.97
2019-04-29T07:28:08.261Z,16.49
2019-04-29T07:31:00.671Z,16.13
2019-04-29T07:33:22.060Z,18.20
2019-04-29T07:35:51.482Z,21.14
2019-04-29T07:38:24.762Z,20.39
2019-04-29T07:40:58.140Z,19.05
2019-04-29T07:43:32.434Z,18.04
2019-04-29T07:46:30.382Z,17.37
2019-04-29T07:49:05.695Z,16.80
2019-04-29T07:51:39.432Z,16.36
2019-04-29T07:54:15.966Z,16.00
2019-04-29T07:56:48.555Z,18.24
2019-04-29T07:59:23.347Z,21.28
2019-04-29T08:01:59.927Z,20.87
2019-04-29T08:04:45.393Z,19.44
2019-04-29T08:07:30.563Z,18.32
2019-04-29T08:10:15.491Z,17.62
2019-04-29T08:12:40.881Z,17.08
2019-04-29T08:15:15.204Z,16.62
2019-04-29T08:17:51.352Z,18.41
2019-04-29T08:20:23.705Z,21.32
2019-04-29T08:22:58.395Z,20.53
2019-04-29T08:25:31.927Z,19.27
2019-04-29T08:28:06.349Z,18.28
2019-04-29T08:30:41.761Z,17.63
2019-04-29T08:33:14.534Z,17.13
2019-04-29T08:35:47.778Z,16.73
2019-04-29T08:38:21.035Z,16.38
2019-04-29T08:40:54.513Z,18.77
2019-04-29T08:43:52.403Z,21.72
2019-04-29T08:46:31.705Z,20.56
2019-04-29T08:49:05.965Z,19.25
2019-04-29T08:51:39.984Z,18.33
2019-04-29T08:54:16.084Z,17.74
2019-04-29T08:57:02.360Z,17.28
2019-04-29T08:59:24.633Z,16.93
2019-04-29T09:01:59.008Z,16.67
2019-04-29T09:04:33.173Z,18.93
2019-04-29T09:07:12.855Z,21.80
2019-04-29T09:09:41.982Z,21.04
2019-04-29T09:12:18.966Z,19.84
2019-04-29T09:14:50.066Z,18.94
2019-04-29T09:17:23.328Z,18.39
2019-04-29T09:19:56.514Z,18.03
2019-04-29T09:22:31.516Z,17.73
2019-04-29T09:25:26.178Z,17.53
2019-04-29T09:27:58.102Z,20.17
2019-04-29T09:30:31.335Z,21.11
2019-04-29T09:33:08.610Z,20.28
2019-04-29T09:35:40.594Z,19.60
2019-04-29T09:38:14.131Z,19.20
2019-04-29T09:40:54.684Z,18.91
2019-04-29T09:43:39.538Z,18.67
2019-04-29T09:46:18.523Z,18.48
2019-04-29T09:48:51.664Z,18.58
2019-04-29T09:51:27.982Z,21.66
2019-04-29T09:53:59.874Z,22.14
2019-04-29T09:56:34.759Z,21.22
2019-04-29T09:59:26.759Z,20.63
2019-04-29T10:02:18.908Z,20.24
2019-04-29T10:05:04.550Z,20.05
2019-04-29T10:07:38.313Z,19.90
2019-04-29T10:10:11.707Z,19.79
2019-04-29T10:12:44.969Z,19.73
2019-04-29T10:15:23.031Z,19.67
2019-04-29T10:18:03.980Z,19.63
2019-04-29T10:20:45.582Z,19.60
2019-04-29T10:23:19.018Z,19.59
2019-04-29T10:25:52.329Z,19.60
2019-04-29T10:28:25.711Z,19.62
2019-04-29T10:31:01.611Z,19.65
2019-04-29T10:33:35.195Z,19.67
2019-04-29T10:36:09.265Z,19.73
2019-04-29T10:38:44.897Z,19.77
2019-04-29T10:41:40.229Z,19.80
2019-04-29T10:44:28.741Z,19.88
2019-04-29T10:47:23.085Z,19.93
2019-04-29T10:49:59.406Z,19.97
2019-04-29T10:52:34.605Z,20.07
2019-04-29T10:55:08.829Z,20.18
2019-04-29T10:57:44.812Z,20.24
2019-04-29T11:00:41.519Z,20.32
2019-04-29T11:03:14.827Z,20.43
2019-04-29T11:06:00.294Z,20.53
2019-04-29T11:08:45.317Z,20.59
2019-04-29T11:11:23.212Z,20.69
2019-04-29T11:13:53.571Z,20.72
2019-04-29T11:16:45.311Z,20.80
2019-04-29T11:19:05.633Z,20.86
2019-04-29T11:21:39.439Z,20.93
2019-04-29T11:24:23.598Z,21.00
2019-04-29T11:27:12.107Z,21.08
2019-04-29T11:29:45.489Z,21.13
2019-04-29T11:32:29.288Z,21.19
2019-04-29T11:35:20.240Z,21.27
2019-04-29T11:37:55.442Z,21.31
2019-04-29T11:40:42.515Z,21.37
2019-04-29T11:43:03.794Z,21.44
2019-04-29T11:45:38.668Z,21.48
2019-04-29T11:48:12.415Z,21.52
2019-04-29T11:51:16.820Z,21.56
2019-04-29T11:53:50.602Z,21.58
2019-04-29T11:56:24.938Z,21.61
2019-04-29T11:59:04.946Z,21.62
2019-04-29T12:01:53.546Z,21.61
2019-04-29T12:04:34.711Z,21.62
2019-04-29T12:07:10.568Z,21.58
2019-04-29T12:09:52.175Z,21.61
2019-04-29T12:12:32.338Z,21.62
2019-04-29T12:15:25.558Z,21.65
2019-04-29T12:18:14.041Z,21.63
2019-04-29T12:20:57.057Z,21.63
2019-04-29T12:23:30.355Z,21.62
2019-04-29T12:26:05.055Z,21.59
2019-04-29T12:28:42.888Z,21.58
2019-04-29T12:31:25.786Z,21.56
2019-04-29T12:34:27.016Z,21.55
2019-04-29T12:37:02.166Z,21.55
2019-04-29T12:40:00.692Z,21.59
2019-04-29T12:42:55.088Z,21.61
2019-04-29T12:45:33.003Z,21.62
2019-04-29T12:48:06.661Z,21.66
2019-04-29T12:50:40.084Z,21.69
2019-04-29T12:53:14.025Z,21.70
2019-04-29T12:55:52.970Z,21.72
2019-04-29T12:58:25.608Z,21.76
2019-04-29T13:01:05.975Z,21.74
2019-04-29T13:03:54.085Z,21.73
2019-04-29T13:06:39.274Z,21.74
2019-04-29T13:09:17.906Z,21.74
2019-04-29T13:11:57.954Z,21.79
2019-04-29T13:14:28.746Z,21.83
2019-04-29T13:17:14.839Z,21.84
2019-04-29T13:20:17.953Z,21.83
2019-04-29T13:22:51.912Z,21.83
2019-04-29T13:25:26.889Z,21.84
2019-04-29T13:28:03.875Z,21.84
2019-04-29T13:30:35.602Z,21.86
2019-04-29T13:33:16.366Z,21.87
2019-04-29T13:35:48.453Z,21.89
2019-04-29T13:38:18.686Z,21.90
2019-04-29T13:41:11.430Z,21.92
2019-04-29T13:43:27.658Z,21.93
2019-04-29T13:46:11.223Z,21.90
2019-04-29T13:49:13.685Z,21.96
2019-04-29T13:51:47.387Z,21.99
2019-04-29T13:54:20.577Z,22.00
2019-04-29T13:56:56.703Z,22.04
2019-04-29T13:59:49.042Z,22.10
2019-04-29T14:02:31.381Z,22.13
2019-04-29T14:05:02.151Z,22.18
2019-04-29T14:07:38.882Z,22.17
2019-04-29T14:10:14.979Z,22.20
2019-04-29T14:12:48.837Z,22.20
2019-04-29T14:15:21.964Z,22.21
2019-04-29T14:17:55.386Z,22.20
2019-04-29T14:20:28.667Z,22.21
2019-04-29T14:23:01.901Z,22.24
2019-04-29T14:25:35.199Z,22.25
2019-04-29T14:28:08.513Z,22.25
2019-04-29T14:30:43.725Z,22.27
2019-04-29T14:33:24.211Z,22.27
2019-04-29T14:36:02.810Z,22.29
2019-04-29T14:38:40.573Z,22.27
2019-04-29T14:41:14.375Z,22.24
2019-04-29T14:44:04.219Z,22.21
2019-04-29T14:46:56.576Z,22.20
2019-04-29T14:49:35.432Z,22.17
2019-04-29T14:52:13.152Z,22.17
2019-04-29T14:54:45.242Z,22.10
2019-04-29T14:57:19.472Z,22.10
2019-04-29T14:59:53.290Z,22.07
2019-04-29T15:02:27.784Z,22.07
2019-04-29T15:05:07.357Z,22.07
2019-04-29T15:07:42.270Z,22.06
2019-04-29T15:10:15.979Z,22.07
2019-04-29T15:13:19.800Z,22.06
2019-04-29T15:16:04.269Z,22.03
2019-04-29T15:19:02.719Z,22.03
2019-04-29T15:21:44.993Z,22.00
2019-04-29T15:24:18.312Z,21.95
2019-04-29T15:26:52.000Z,21.93
2019-04-29T15:29:28.429Z,21.89
2019-04-29T15:32:01.852Z,21.84
2019-04-29T15:34:36.343Z,21.81
2019-04-29T15:37:09.789Z,21.80
2019-04-29T15:39:46.089Z,21.80
2019-04-29T15:42:18.088Z,21.79
2019-04-29T15:44:55.795Z,21.76
2019-04-29T15:47:31.190Z,21.76
2019-04-29T15:50:17.389Z,21.73
2019-04-29T15:52:39.563Z,21.72
2019-04-29T15:55:13.538Z,21.73
2019-04-29T15:57:50.342Z,21.70
2019-04-29T16:00:23.399Z,21.68
2019-04-29T16:02:57.890Z,21.65
2019-04-29T16:06:04.608Z,21.63
2019-04-29T16:08:29.383Z,21.62
2019-04-29T16:11:29.354Z,21.61
2019-04-29T16:16:41.198Z,21.55
2019-04-29T16:19:15.240Z,21.53
2019-04-29T16:21:48.657Z,21.49
2019-04-29T16:24:27.081Z,21.48
2019-04-29T16:27:01.366Z,21.44
2019-04-29T16:29:33.249Z,21.45
2019-04-29T16:32:11.695Z,21.41
2019-04-29T16:34:51.094Z,21.35
2019-04-29T16:37:31.821Z,21.30
2019-04-29T16:40:04.546Z,21.27
2019-04-29T16:43:07.563Z,21.24
2019-04-29T16:46:03.052Z,21.18
2019-04-29T16:48:43.065Z,21.13
2019-04-29T16:51:19.406Z,21.07
2019-04-29T16:53:52.859Z,21.04
2019-04-29T16:56:27.345Z,21.00
2019-04-29T16:59:08.897Z,20.96
2019-04-29T17:01:36.437Z,20.91
2019-04-29T17:04:14.032Z,20.86
2019-04-29T17:07:11.329Z,20.84
2019-04-29T17:09:48.199Z,20.79
2019-04-29T17:12:21.684Z,20.73
2019-04-29T17:15:03.983Z,20.68
2019-04-29T17:17:30.229Z,20.63
2019-04-29T17:20:03.702Z,20.60
2019-04-29T17:22:43.226Z,20.52
2019-04-29T17:25:14.151Z,20.51
2019-04-29T17:27:56.282Z,20.42
2019-04-29T17:30:48.908Z,20.38
2019-04-29T17:33:49.478Z,20.31
2019-04-29T17:35:15.562Z,21.58
2019-04-29T17:36:23.746Z,20.27
2019-04-29T17:38:57.361Z,20.21
2019-04-29T17:41:30.828Z,20.14
2019-04-29T17:44:18.727Z,20.10
2019-04-29T17:47:11.597Z,20.00
2019-04-29T17:50:06.659Z,19.96
2019-04-29T17:52:40.164Z,19.88
2019-04-29T17:55:47.580Z,19.81
2019-04-29T17:58:51.680Z,19.73
2019-04-29T18:01:42.980Z,19.66
2019-04-29T18:04:42.645Z,19.58
2019-04-29T18:07:25.056Z,19.52
2019-04-29T18:10:29.475Z,19.44
2019-04-29T18:13:00.759Z,19.35
2019-04-29T18:15:47.474Z,19.28
2019-04-29T18:18:17.526Z,19.21
2019-04-29T18:21:18.617Z,19.14
2019-04-29T18:24:15.234Z,19.05
2019-04-29T18:26:53.460Z,18.97
2019-04-29T18:29:26.399Z,18.88
2019-04-29T18:32:00.566Z,18.83
2019-04-29T18:34:37.383Z,18.75
2019-04-29T18:37:11.595Z,18.66
2019-04-29T18:39:44.938Z,18.58
2019-04-29T18:42:18.639Z,18.52
2019-04-29T18:44:59.773Z,18.46
2019-04-29T18:47:34.818Z,18.38
2019-04-29T18:50:04.926Z,18.31
2019-04-29T18:52:37.938Z,18.25
2019-04-29T18:55:11.713Z,18.20
2019-04-29T18:57:44.955Z,18.11
2019-04-29T19:00:19.976Z,18.08
2019-04-29T19:02:58.484Z,18.03
2019-04-29T19:05:36.095Z,17.97
2019-04-29T19:08:13.990Z,17.87
2019-04-29T19:10:49.869Z,17.84
2019-04-29T19:13:19.648Z,17.79
2019-04-29T19:15:58.798Z,17.74
2019-04-29T19:18:30.190Z,17.69
2019-04-29T19:21:03.431Z,17.65
2019-04-29T19:23:38.289Z,17.57
2019-04-29T19:26:12.071Z,17.53
2019-04-29T19:28:47.018Z,17.48
2019-04-29T19:31:21.838Z,17.42
2019-04-29T19:33:57.238Z,17.37
2019-04-29T19:36:37.125Z,17.32
2019-04-29T19:39:16.834Z,17.27
2019-04-29T19:41:52.344Z,17.22
2019-04-29T19:44:33.229Z,17.19
2019-04-29T19:47:02.803Z,17.14
2019-04-29T19:49:40.290Z,17.08
2019-04-29T19:52:11.349Z,17.03
2019-04-29T19:54:50.445Z,16.99
2019-04-29T19:57:25.514Z,16.93
2019-04-29T20:00:01.160Z,16.87
2019-04-29T20:02:35.938Z,16.79
2019-04-29T20:05:30.645Z,16.74
2019-04-29T20:07:59.270Z,16.72
2019-04-29T20:10:44.413Z,16.63
2019-04-29T20:13:09.044Z,16.58
2019-04-29T20:15:53.117Z,16.53
2019-04-29T20:19:00.975Z,16.48
2019-04-29T20:21:36.211Z,16.42
2019-04-29T20:24:15.510Z,16.38
2019-04-29T20:26:46.940Z,16.29
2019-04-29T20:29:20.065Z,16.25
2019-04-29T20:31:56.287Z,16.18
2019-04-29T20:34:28.798Z,16.13
2019-04-29T20:37:02.320Z,16.08
2019-04-29T20:39:36.126Z,16.04
2019-04-29T20:42:11.333Z,15.98
2019-04-29T20:44:49.343Z,15.93
2019-04-29T20:47:33.149Z,15.91
2019-04-29T20:50:01.024Z,15.81
2019-04-29T20:53:01.872Z,15.77
2019-04-29T20:55:36.765Z,15.70
2019-04-29T20:58:09.256Z,15.69
2019-04-29T21:00:42.663Z,15.63
2019-04-29T21:03:27.336Z,15.59
2019-04-29T21:05:54.943Z,15.53
2019-04-29T21:08:28.042Z,15.49
2019-04-29T21:11:05.773Z,15.48
2019-04-29T21:14:03.323Z,15.45
2019-04-29T21:16:39.942Z,15.38
2019-04-29T21:19:13.207Z,15.34
2019-04-29T21:21:47.526Z,15.28
2019-04-29T21:24:21.012Z,15.25
2019-04-29T21:26:57.427Z,15.22
2019-04-29T21:29:30.455Z,15.18
2019-04-29T21:32:05.681Z,15.15
2019-04-29T21:34:58.039Z,15.11
2019-04-29T21:37:48.105Z,15.07
2019-04-29T21:40:35.345Z,15.01
2019-04-29T21:43:19.098Z,15.00
2019-04-29T21:45:52.403Z,14.94
2019-04-29T21:48:33.620Z,14.90
2019-04-29T21:51:00.459Z,14.88
2019-04-29T21:53:36.581Z,14.84
2019-04-29T21:56:09.489Z,14.79
2019-04-29T21:58:42.934Z,14.73
2019-04-29T22:01:16.668Z,14.70
2019-04-29T22:03:51.437Z,14.68
2019-04-29T22:06:28.702Z,14.62
2019-04-29T22:09:01.367Z,14.58
2019-04-29T22:11:43.027Z,14.52
2019-04-29T22:14:14.160Z,14.49
2019-04-29T22:16:47.594Z,14.47
2019-04-29T22:19:26.040Z,14.38
2019-04-29T22:22:00.197Z,14.35
2019-04-29T22:24:30.174Z,14.27
2019-04-29T22:27:05.213Z,14.22
2019-04-29T22:29:39.363Z,14.15
2019-04-29T22:32:14.680Z,14.08
2019-04-29T22:34:49.532Z,14.05
2019-04-29T22:37:22.740Z,14.01
2019-04-29T22:39:58.633Z,13.94
2019-04-29T22:43:05.161Z,13.89
2019-04-29T22:45:35.585Z,13.82
2019-04-29T22:48:16.345Z,13.76
2019-04-29T22:50:45.472Z,13.69
2019-04-29T22:53:19.556Z,13.65
2019-04-29T22:55:53.734Z,13.56
2019-04-29T22:58:27.024Z,13.50
2019-04-29T23:01:02.469Z,13.45
2019-04-29T23:03:37.415Z,13.38
2019-04-29T23:06:10.744Z,13.34
2019-04-29T23:08:44.972Z,13.31
2019-04-29T23:11:18.444Z,13.24
2019-04-29T23:13:52.871Z,13.20
2019-04-29T23:16:26.222Z,13.14
2019-04-29T23:18:59.543Z,13.10
2019-04-29T23:21:51.103Z,13.06
2019-04-29T23:24:46.648Z,13.01
2019-04-29T23:27:19.967Z,12.94
2019-04-29T23:29:53.371Z,12.92
2019-04-29T23:32:26.704Z,12.86
2019-04-29T23:35:01.737Z,12.83
2019-04-29T23:37:35.863Z,12.80
2019-04-29T23:40:10.134Z,12.73
2019-04-29T23:42:47.945Z,12.69
2019-04-29T23:45:21.196Z,12.66
2019-04-29T23:47:55.556Z,12.60
2019-04-29T23:50:28.842Z,12.56
2019-04-29T23:53:01.993Z,12.51
2019-04-29T23:55:35.746Z,12.48
2019-04-29T23:58:37.304Z,12.45
